Terminal Aerodrome Forecast
Issued by NWS

Home | Current Version | Previous Version | Text Only | Print | Product List | Glossary On
Versions: 1 2 3 4 5 6 7 8 9 10 11 12 13 14
000
FTUS45 KLKN 230520
TAFTPH
TAF
KTPH 230520Z 2306/2406 33022G30KT P6SM -RASN SCT025 BKN035
     FM231100 33024G32KT P6SM VCSH BKN045
     FM231500 33025G35KT P6SM SCT050
     FM232100 34015G25KT P6SM FEW050
     FM240300 34008KT P6SM SCT200=

USA.gov is the U.S. government's official web portal to all federal, state and local government web resources and services.